Time;durP1;ratioP1;P1;durP2;ratioP2;P2;SDS_P1;SDS_P2;PMS_P1;PMS_P2;Temp;Humidity;BMP_temperature;BMP_pressure;BME280_temperature;BME280_humidity;BME280_pressure;Samples;Min_cycle;Max_cycle;Signal;HPM_P1;HPM_P2
2022/11/16 12:33:16;;;;;;;8.40;3.57;;;;;;;19.66;54.08;63267.44;17406062;27;397307;-37
2022/11/16 12:42:19;;;;;;;14.93;4.90;;;;;;;19.66;53.95;63267.44;17197373;28;20269;-37
2022/11/16 12:51:06;;;;;;;8.40;2.93;;;;;;;19.68;54.14;63267.09;17196697;28;20639;-37
2022/11/16 13:00:04;;;;;;;9.93;3.50;;;;;;;19.74;54.25;63279.09;17180583;28;20484;-35
2022/11/16 13:08:49;;;;;;;15.68;3.28;;;;;;;19.77;54.09;63285.66;17167210;28;20964;-27
2022/11/16 13:17:28;;;;;;;9.80;3.87;;;;;;;19.72;53.94;63277.41;17205851;28;20248;-26
2022/11/16 13:26:13;;;;;;;9.47;3.50;;;;;;;19.71;53.91;63275.72;17190675;28;20556;-27
2022/11/16 13:34:49;;;;;;;8.97;3.10;;;;;;;19.68;54.30;63267.66;17190730;28;20610;-27
2022/11/16 13:43:26;;;;;;;9.10;2.43;;;;;;;19.66;54.46;63270.06;17149348;28;20716;-27
2022/11/16 13:52:03;;;;;;;13.60;5.00;;;;;;;19.67;54.34;63268.56;17127522;28;20308;-27
2022/11/16 14:00:41;;;;;;;12.10;2.83;;;;;;;19.65;54.44;63268.97;17123180;28;20588;-28
2022/11/16 14:09:41;;;;;;;8.13;3.30;;;;;;;19.67;54.59;63273.81;17133191;28;20284;-27
2022/11/16 14:18:36;;;;;;;11.73;3.07;;;;;;;19.66;54.39;63267.44;17138631;28;20630;-27
2022/11/16 14:27:20;;;;;;;7.37;2.90;;;;;;;19.69;54.22;63270.84;17139684;28;20283;-29
2022/11/16 14:35:58;;;;;;;10.10;3.00;;;;;;;19.73;54.00;63278.53;17131237;28;20268;-28
2022/11/16 14:44:38;;;;;;;25.67;3.00;;;;;;;19.69;54.08;63271.38;17139980;28;20266;-28
2022/11/16 14:53:19;;;;;;;5.70;2.70;;;;;;;19.68;54.42;63272.34;17154319;28;20252;-29
2022/11/16 15:01:55;;;;;;;6.20;2.83;;;;;;;19.68;54.68;63272.34;17131561;28;20760;-27
2022/11/16 15:10:31;;;;;;;6.50;2.70;;;;;;;19.76;54.65;63278.72;17152126;28;20741;-29
2022/11/16 15:19:12;;;;;;;7.23;2.90;;;;;;;19.72;54.95;63272.16;17142928;28;20820;-27
2022/11/16 15:27:49;;;;;;;7.20;2.50;;;;;;;19.69;55.34;63273.47;17167835;28;20598;-28
2022/11/16 15:36:31;;;;;;;8.00;2.90;;;;;;;19.69;55.42;63273.47;17224185;28;20274;-27
2022/11/16 15:45:12;;;;;;;21.33;3.33;;;;;;;19.73;55.19;63277.97;17229539;28;20711;-28
2022/11/16 15:53:50;;;;;;;8.65;2.60;;;;;;;19.72;55.07;63276.84;17208580;28;20847;-27
2022/11/16 16:02:30;;;;;;;6.50;2.60;;;;;;;19.66;55.21;63275.31;17214589;28;20208;-27
2022/11/16 16:11:11;;;;;;;5.40;2.57;;;;;;;19.64;55.30;63265.16;17226163;28;20720;-27
2022/11/16 16:19:55;;;;;;;10.40;3.20;;;;;;;19.67;57.42;63271.78;17210470;28;20270;-27
2022/11/16 16:28:31;;;;;;;12.10;4.13;;;;;;;19.73;56.68;63277.97;17201566;28;20261;-28
2022/11/16 16:37:10;;;;;;;11.30;2.50;;;;;;;19.77;56.32;63282.47;17216201;28;20231;-27
2022/11/16 16:45:45;;;;;;;17.07;2.80;;;;;;;19.79;56.25;63279.50;17209948;28;20287;-27
2022/11/16 16:54:22;;;;;;;7.40;2.50;;;;;;;19.79;56.08;63284.72;17212791;28;20242;-28
2022/11/16 17:02:58;;;;;;;7.40;2.70;;;;;;;19.84;56.08;63290.34;17213377;28;20208;-26
2022/11/16 17:20:00;;;;;;;9.07;2.60;;;;;;;19.82;57.05;63290.16;16561869;22;20621;-23
2022/11/16 17:28:35;;;;;;;8.20;2.80;;;;;;;19.78;57.36;63283.59;17290062;28;20646;-23
2022/11/16 17:37:12;;;;;;;8.40;3.10;;;;;;;19.83;56.91;63289.22;17297301;28;20292;-23
2022/11/16 17:45:47;;;;;;;16.87;2.77;;;;;;;19.78;56.92;63284.16;17305978;28;20319;-26
2022/11/16 17:54:24;;;;;;;12.90;2.90;;;;;;;19.78;57.15;63283.59;17308536;28;20227;-25
2022/11/16 18:03:00;;;;;;;12.53;3.20;;;;;;;19.76;56.79;63281.34;17297852;28;20219;-25
2022/11/16 18:11:38;;;;;;;18.83;4.70;;;;;;;19.75;57.73;63280.78;17285981;28;20277;-25
2022/11/16 18:20:14;;;;;;;24.57;4.40;;;;;;;19.81;57.28;63286.97;17295120;28;20734;-25
2022/11/16 19:15:17;;;;;;;15.17;3.70;;;;;;;20.67;55.36;63384.31;17425433;22;21189;-22
2022/11/16 19:23:54;;;;;;;14.40;3.33;;;;;;;20.65;55.10;63377.38;17501610;27;20234;-19
2022/11/16 19:32:31;;;;;;;16.47;5.00;;;;;;;20.96;53.71;63413.25;17463455;28;20478;-19
2022/11/16 19:41:08;;;;;;;13.63;3.83;;;;;;;20.74;54.16;63389.59;17469944;28;20497;-19
2022/11/16 20:09:57;;;;;;;7.20;2.60;;;;;;;19.75;49.54;63280.22;17205539;28;20670;-25
2022/11/16 20:18:32;;;;;;;8.68;2.35;;;;;;;19.94;49.66;63301.06;17150552;28;20268;-25
2022/11/16 20:27:09;;;;;;;5.60;2.30;;;;;;;20.06;50.06;63311.41;17167531;28;20600;-26
2022/11/16 20:35:44;;;;;;;6.40;1.80;;;;;;;20.12;50.28;63320.78;17148521;28;20289;-26
2022/11/16 20:44:22;;;;;;;5.83;2.17;;;;;;;20.15;50.72;63324.19;17146700;28;20874;-25
2022/11/16 20:52:57;;;;;;;7.75;2.00;;;;;;;20.15;51.14;63319.50;17153388;28;20231;-26
2022/11/16 21:01:35;;;;;;;5.40;2.30;;;;;;;20.15;51.39;63324.19;17135740;28;20287;-26
2022/11/16 21:10:19;;;;;;;5.45;1.67;;;;;;;20.13;51.49;63319.28;17097947;28;20257;-25
2022/11/16 21:18:56;;;;;;;5.27;2.27;;;;;;;20.11;51.83;63319.66;17104041;28;20234;-25
2022/11/16 21:27:31;;;;;;;5.37;2.33;;;;;;;20.08;51.88;63316.84;17100604;28;20281;-26
2022/11/16 21:36:11;;;;;;;7.90;2.53;;;;;;;20.08;51.64;63316.84;17108224;28;20286;-26
2022/11/16 21:44:46;;;;;;;4.90;2.10;;;;;;;20.05;51.88;63312.91;17111028;28;20241;-25
2022/11/16 21:53:23;;;;;;;5.90;2.20;;;;;;;20.03;51.90;63310.66;17110818;28;20986;-25
2022/11/16 22:02:01;;;;;;;7.50;2.57;;;;;;;19.98;52.08;63306.13;17104192;28;20217;-26
2022/11/16 22:10:38;;;;;;;6.80;2.47;;;;;;;19.97;51.92;63301.84;17101642;28;20221;-25
2022/11/16 22:19:14;;;;;;;7.00;2.30;;;;;;;19.95;52.23;63296.94;17107539;28;20603;-26
2022/11/16 22:27:50;;;;;;;5.03;2.10;;;;;;;19.91;51.97;63295.06;17091836;28;20731;-25
2022/11/16 22:36:26;;;;;;;5.33;2.20;;;;;;;19.86;52.19;63292.06;17091868;28;20285;-25
2022/11/16 22:45:02;;;;;;;4.27;2.00;;;;;;;19.84;52.06;63295.59;17100896;28;20733;-26
2022/11/16 22:53:38;;;;;;;5.83;2.00;;;;;;;19.82;52.17;63285.50;17088739;28;25677;-25
2022/11/16 23:02:15;;;;;;;5.47;2.00;;;;;;;19.79;52.00;63289.97;17085281;28;20241;-26
2022/11/16 23:28:46;;;;;;;4.20;2.00;;;;;;;19.69;51.89;63268.78;17095823;28;20276;-25
2022/11/16 23:37:23;;;;;;;6.77;2.03;;;;;;;19.67;51.94;63271.78;17106057;28;20279;-25
2022/11/16 23:45:58;;;;;;;5.70;2.00;;;;;;;19.63;51.97;63267.22;17104654;28;20241;-25
2022/11/16 23:54:35;;;;;;;5.70;2.17;;;;;;;19.62;52.06;63265.56;17093015;28;20240;-25
